createdAt,value
2023-03-20T00:02:01.513Z,10.40
2023-03-20T00:04:30.811Z,10.30
2023-03-20T00:06:58.868Z,10.20
2023-03-20T00:09:27.205Z,10.10
2023-03-20T00:11:56.485Z,10.10
2023-03-20T00:14:26.191Z,10.10
2023-03-20T00:16:54.196Z,10.00
2023-03-20T00:19:24.323Z,10.00
2023-03-20T00:21:54.824Z,10.00
2023-03-20T00:24:22.854Z,10.00
2023-03-20T00:26:52.950Z,10.00
2023-03-20T00:29:23.580Z,9.90
2023-03-20T00:31:51.800Z,9.90
2023-03-20T00:34:22.207Z,10.00
2023-03-20T00:36:50.942Z,10.00
2023-03-20T00:39:20.617Z,9.90
2023-03-20T00:41:52.227Z,10.00
2023-03-20T00:44:26.584Z,10.00
2023-03-20T00:46:57.012Z,9.90
2023-03-20T00:49:28.018Z,9.90
2023-03-20T00:51:56.327Z,9.80
2023-03-20T00:54:26.225Z,9.80
2023-03-20T00:56:58.485Z,9.90
2023-03-20T00:59:31.363Z,9.80
2023-03-20T01:01:59.837Z,9.80
2023-03-20T01:04:34.515Z,9.80
2023-03-20T01:07:02.730Z,9.70
2023-03-20T01:09:32.087Z,9.70
2023-03-20T01:12:00.800Z,9.70
2023-03-20T01:14:28.691Z,9.70
2023-03-20T01:16:56.674Z,9.70
2023-03-20T01:19:24.481Z,9.70
2023-03-20T01:21:52.364Z,9.70
2023-03-20T01:24:20.500Z,9.70
2023-03-20T01:26:51.770Z,9.70
2023-03-20T01:29:22.213Z,9.80
2023-03-20T01:31:51.003Z,9.70
2023-03-20T01:34:19.532Z,9.70
2023-03-20T01:36:51.122Z,9.70
2023-03-20T01:39:21.672Z,9.70
2023-03-20T01:41:52.420Z,9.70
2023-03-20T01:44:23.642Z,9.70
2023-03-20T01:46:53.708Z,9.80
2023-03-20T01:49:59.048Z,9.80
2023-03-20T01:52:26.963Z,9.80
2023-03-20T01:54:54.981Z,9.90
2023-03-20T01:57:26.514Z,9.90
2023-03-20T02:00:01.534Z,9.80
2023-03-20T02:02:32.415Z,9.70
2023-03-20T02:05:04.122Z,9.70
2023-03-20T02:07:34.239Z,9.60
2023-03-20T02:10:03.339Z,9.70
2023-03-20T02:12:33.193Z,9.60
2023-03-20T02:15:01.336Z,9.60
2023-03-20T02:17:29.226Z,9.50
2023-03-20T02:20:07.902Z,9.50
2023-03-20T02:23:08.480Z,9.50
2023-03-20T02:25:58.500Z,9.50
2023-03-20T02:29:01.143Z,9.60
2023-03-20T02:32:00.728Z,9.60
2023-03-20T02:34:42.822Z,9.60
2023-03-20T02:37:48.594Z,9.50
2023-03-20T02:40:25.950Z,9.50
2023-03-20T02:43:01.573Z,9.40
2023-03-20T02:45:34.532Z,9.40
2023-03-20T02:48:10.741Z,9.40
2023-03-20T02:50:44.859Z,9.40
2023-03-20T02:53:26.784Z,9.40
2023-03-20T02:56:01.773Z,9.50
2023-03-20T02:58:34.587Z,9.50
2023-03-20T03:01:09.722Z,9.50
2023-03-20T03:03:41.772Z,9.40
2023-03-20T03:06:16.177Z,9.40
2023-03-20T03:08:49.426Z,9.40
2023-03-20T03:11:17.476Z,9.40
2023-03-20T03:13:49.968Z,9.40
2023-03-20T03:16:23.441Z,9.40
2023-03-20T03:18:58.533Z,9.40
2023-03-20T03:21:28.344Z,9.40
2023-03-20T03:23:57.941Z,9.40
2023-03-20T03:26:28.756Z,9.30
2023-03-20T03:29:01.523Z,9.30
2023-03-20T03:31:30.708Z,9.30
2023-03-20T03:34:01.353Z,9.30
2023-03-20T03:36:39.700Z,9.30
2023-03-20T03:39:17.616Z,9.30
2023-03-20T03:41:49.351Z,9.30
2023-03-20T03:44:22.563Z,9.30
2023-03-20T03:46:55.676Z,9.30
2023-03-20T03:49:27.317Z,9.30
2023-03-20T03:51:58.596Z,9.30
2023-03-20T03:54:31.744Z,9.30
2023-03-20T03:57:01.342Z,9.30
2023-03-20T03:59:35.107Z,9.30
2023-03-20T04:02:05.770Z,9.40
2023-03-20T04:04:35.399Z,9.30
2023-03-20T04:07:03.411Z,9.30
2023-03-20T04:09:33.577Z,9.30
2023-03-20T04:12:01.780Z,9.30
2023-03-20T04:14:29.667Z,9.30
2023-03-20T04:16:57.526Z,9.30
2023-03-20T04:19:25.404Z,9.40
2023-03-20T04:21:55.165Z,9.30
2023-03-20T04:24:23.272Z,9.50
2023-03-20T04:26:52.461Z,9.60
2023-03-20T04:29:20.264Z,9.70
2023-03-20T04:31:48.172Z,9.80
2023-03-20T04:34:16.707Z,9.90
2023-03-20T04:36:45.260Z,10.00
2023-03-20T04:39:13.333Z,10.00
2023-03-20T04:41:41.572Z,10.00
2023-03-20T04:44:10.765Z,10.00
2023-03-20T04:46:38.658Z,10.10
2023-03-20T04:49:07.640Z,10.20
2023-03-20T04:51:35.526Z,10.20
2023-03-20T04:54:03.399Z,10.20
2023-03-20T04:56:31.493Z,10.20
2023-03-20T04:58:59.325Z,10.20
2023-03-20T05:01:28.660Z,10.20
2023-03-20T05:04:00.728Z,10.20
2023-03-20T05:06:29.379Z,10.10
2023-03-20T05:08:58.984Z,10.10
2023-03-20T05:11:26.908Z,10.10
2023-03-20T05:13:54.945Z,10.00
2023-03-20T05:16:22.978Z,10.00
2023-03-20T05:18:52.252Z,10.00
2023-03-20T05:21:20.248Z,9.90
2023-03-20T05:23:48.318Z,9.90
2023-03-20T05:26:16.266Z,9.90
2023-03-20T05:28:44.576Z,9.90
2023-03-20T05:31:12.515Z,9.80
2023-03-20T05:33:40.611Z,9.80
2023-03-20T05:36:11.027Z,9.80
2023-03-20T05:38:38.893Z,9.90
2023-03-20T05:41:07.512Z,9.90
2023-03-20T05:43:35.594Z,9.80
2023-03-20T05:46:03.536Z,9.90
2023-03-20T05:48:31.877Z,9.80
2023-03-20T05:50:59.823Z,9.90
2023-03-20T05:53:29.247Z,9.90
2023-03-20T05:55:57.600Z,9.90
2023-03-20T05:58:25.712Z,9.90
2023-03-20T06:00:53.516Z,9.90
2023-03-20T06:03:21.612Z,9.90
2023-03-20T06:05:49.611Z,10.00
2023-03-20T06:08:17.522Z,10.00
2023-03-20T06:10:46.774Z,10.00
2023-03-20T06:13:14.683Z,10.00
2023-03-20T06:15:42.780Z,10.00
2023-03-20T06:18:10.712Z,10.00
2023-03-20T06:20:38.516Z,10.00
2023-03-20T06:23:06.524Z,10.00
2023-03-20T06:25:34.784Z,10.10
2023-03-20T06:28:04.694Z,10.20
2023-03-20T06:30:32.542Z,10.30
2023-03-20T06:33:00.484Z,10.30
2023-03-20T06:35:31.170Z,10.30
2023-03-20T06:37:59.587Z,10.30
2023-03-20T06:40:28.299Z,10.40
2023-03-20T06:42:56.599Z,10.40
2023-03-20T06:45:26.080Z,10.40
2023-03-20T06:47:53.968Z,10.40
2023-03-20T06:50:21.878Z,10.50
2023-03-20T06:52:49.774Z,10.50
2023-03-20T06:55:17.781Z,10.50
2023-03-20T06:57:46.272Z,10.50
2023-03-20T07:00:15.509Z,10.60
2023-03-20T07:02:44.765Z,10.60
2023-03-20T07:05:12.912Z,10.60
2023-03-20T07:07:40.735Z,10.60
2023-03-20T07:10:12.350Z,10.60
2023-03-20T07:12:40.506Z,10.70
2023-03-20T07:15:09.502Z,10.70
2023-03-20T07:17:37.376Z,10.80
2023-03-20T07:20:08.558Z,10.90
2023-03-20T07:22:36.563Z,10.90
2023-03-20T07:25:04.912Z,11.10
2023-03-20T07:27:32.816Z,11.20
2023-03-20T07:30:00.773Z,11.20
2023-03-20T07:32:29.223Z,11.20
2023-03-20T07:34:57.289Z,11.30
2023-03-20T07:37:26.606Z,11.20
2023-03-20T07:39:55.591Z,11.20
2023-03-20T07:42:23.542Z,11.20
2023-03-20T07:44:51.493Z,11.20
2023-03-20T07:47:19.480Z,11.20
2023-03-20T07:49:47.979Z,11.20
2023-03-20T07:52:17.167Z,11.20
2023-03-20T07:54:46.402Z,11.20
2023-03-20T07:57:14.221Z,11.20
2023-03-20T07:59:42.437Z,11.20
2023-03-20T08:02:15.043Z,11.20
2023-03-20T08:04:43.088Z,11.10
2023-03-20T08:07:11.347Z,11.20
2023-03-20T08:09:41.493Z,11.20
2023-03-20T08:12:10.982Z,11.20
2023-03-20T08:14:39.828Z,11.30
2023-03-20T08:17:15.076Z,11.30
2023-03-20T08:19:44.565Z,11.30
2023-03-20T08:22:12.467Z,11.30
2023-03-20T08:24:40.362Z,11.40
2023-03-20T08:27:08.491Z,11.40
2023-03-20T08:29:38.030Z,11.40
2023-03-20T08:32:06.837Z,11.40
2023-03-20T08:34:34.721Z,11.40
2023-03-20T08:37:04.893Z,11.50
2023-03-20T08:39:33.420Z,11.50
2023-03-20T08:42:01.685Z,11.50
2023-03-20T08:44:29.824Z,11.60
2023-03-20T08:46:59.781Z,11.50
2023-03-20T08:49:27.822Z,11.50
2023-03-20T08:51:55.776Z,11.60
2023-03-20T08:54:24.301Z,11.60
2023-03-20T08:56:53.554Z,11.70
2023-03-20T08:59:21.414Z,11.70
2023-03-20T09:01:50.516Z,11.60
2023-03-20T09:04:20.620Z,11.70
2023-03-20T09:06:48.812Z,11.70
2023-03-20T09:09:19.424Z,11.80
2023-03-20T09:11:47.458Z,11.80
2023-03-20T09:14:16.153Z,11.70
2023-03-20T09:16:44.275Z,11.60
2023-03-20T09:19:12.128Z,11.50
2023-03-20T09:21:41.353Z,11.50
2023-03-20T09:24:09.552Z,11.50
2023-03-20T09:26:37.619Z,11.50
2023-03-20T09:29:05.575Z,11.50
2023-03-20T09:31:34.296Z,11.60
2023-03-20T09:34:02.299Z,11.60
2023-03-20T09:36:30.579Z,11.70
2023-03-20T09:39:00.021Z,11.70
2023-03-20T09:41:28.887Z,11.70
2023-03-20T09:44:13.655Z,11.70
2023-03-20T09:47:19.483Z,11.70
2023-03-20T09:49:59.722Z,11.60
2023-03-20T09:52:31.375Z,11.60
2023-03-20T09:55:04.630Z,11.70
2023-03-20T09:57:38.945Z,11.80
2023-03-20T10:00:12.090Z,11.90
2023-03-20T10:02:49.325Z,11.90
2023-03-20T10:05:24.034Z,12.00
2023-03-20T10:07:52.664Z,12.00
2023-03-20T10:10:25.274Z,12.10
2023-03-20T10:13:07.772Z,12.20
2023-03-20T10:15:47.057Z,12.60
2023-03-20T10:18:22.120Z,12.90
2023-03-20T10:20:57.900Z,12.80
2023-03-20T10:23:31.163Z,12.90
2023-03-20T10:26:07.966Z,13.10
2023-03-20T10:28:41.356Z,13.50
2023-03-20T10:31:30.959Z,13.80
2023-03-20T10:34:09.393Z,14.00
2023-03-20T10:36:51.192Z,14.30
2023-03-20T10:39:30.397Z,14.40
2023-03-20T10:42:04.677Z,14.50
2023-03-20T10:44:38.460Z,14.30
2023-03-20T10:47:11.032Z,14.20
2023-03-20T10:49:44.321Z,14.10
2023-03-20T10:52:16.132Z,14.00
2023-03-20T10:54:47.729Z,14.30
2023-03-20T10:57:23.461Z,14.40
2023-03-20T10:59:52.663Z,14.70
2023-03-20T11:02:23.229Z,15.00
2023-03-20T11:04:51.924Z,15.10
2023-03-20T11:07:25.115Z,15.40
2023-03-20T11:10:14.013Z,15.40
2023-03-20T11:12:45.622Z,15.50
2023-03-20T11:15:22.952Z,15.80
2023-03-20T11:17:56.010Z,16.00
2023-03-20T11:20:24.962Z,15.50
2023-03-20T11:22:59.931Z,15.30
2023-03-20T11:25:33.133Z,15.40
2023-03-20T11:28:27.867Z,15.40
2023-03-20T11:31:07.200Z,15.50
2023-03-20T11:33:39.912Z,15.90
2023-03-20T11:36:26.617Z,16.50
2023-03-20T11:39:02.603Z,17.20
2023-03-20T11:41:30.628Z,17.90
2023-03-20T11:43:59.849Z,18.20
2023-03-20T11:46:27.769Z,17.80
2023-03-20T11:49:08.063Z,17.60
2023-03-20T11:51:38.125Z,17.20
2023-03-20T11:54:11.130Z,17.30
2023-03-20T11:56:39.077Z,17.20
2023-03-20T11:59:18.246Z,17.00
2023-03-20T12:01:48.973Z,16.70
2023-03-20T12:04:19.157Z,16.60
2023-03-20T12:06:53.751Z,16.60
2023-03-20T12:09:42.201Z,16.40
2023-03-20T12:12:18.603Z,16.20
2023-03-20T12:14:55.975Z,16.00
2023-03-20T12:17:36.039Z,16.00
2023-03-20T12:20:13.150Z,15.80
2023-03-20T12:22:46.424Z,15.60
2023-03-20T12:25:22.415Z,15.50
2023-03-20T12:27:57.580Z,15.40
2023-03-20T12:30:46.153Z,15.30
2023-03-20T12:33:21.074Z,15.50
2023-03-20T12:35:52.717Z,15.50
2023-03-20T12:38:28.047Z,15.40
2023-03-20T12:41:01.908Z,15.60
2023-03-20T12:43:37.940Z,15.70
2023-03-20T12:46:18.953Z,16.10
2023-03-20T12:48:55.084Z,16.50
2023-03-20T12:51:33.058Z,16.70
2023-03-20T12:54:16.457Z,17.00
2023-03-20T12:56:57.741Z,17.30
2023-03-20T12:59:36.493Z,17.70
2023-03-20T13:02:18.786Z,17.70
2023-03-20T13:04:58.764Z,17.80
2023-03-20T13:07:35.715Z,18.00
2023-03-20T13:10:12.437Z,18.10
2023-03-20T13:12:47.720Z,18.10
2023-03-20T13:15:24.674Z,17.90
2023-03-20T13:18:02.301Z,17.60
2023-03-20T13:20:33.222Z,17.40
2023-03-20T13:23:15.314Z,17.30
2023-03-20T13:25:54.838Z,16.90
2023-03-20T13:28:31.086Z,16.70
2023-03-20T13:31:07.204Z,16.60
2023-03-20T13:33:47.530Z,16.40
2023-03-20T13:36:26.258Z,16.30
2023-03-20T13:38:58.923Z,16.20
2023-03-20T13:41:27.429Z,16.10
2023-03-20T13:44:01.081Z,16.20
2023-03-20T13:46:33.475Z,16.10
2023-03-20T13:49:08.909Z,16.30
2023-03-20T13:51:42.982Z,16.40
2023-03-20T13:54:32.239Z,16.50
2023-03-20T13:57:08.132Z,16.80
2023-03-20T13:59:54.667Z,17.00
2023-03-20T14:02:35.661Z,16.90
2023-03-20T14:05:11.682Z,16.90
2023-03-20T14:07:44.807Z,16.90
2023-03-20T14:10:48.585Z,16.90
2023-03-20T14:13:19.442Z,16.90
2023-03-20T14:15:53.395Z,16.80
2023-03-20T14:18:24.597Z,16.70
2023-03-20T14:20:57.626Z,16.50
2023-03-20T14:23:36.051Z,16.40
2023-03-20T14:26:10.805Z,16.40
2023-03-20T14:28:52.962Z,16.40
2023-03-20T14:31:27.599Z,16.40
2023-03-20T14:34:01.408Z,16.10
2023-03-20T14:36:46.668Z,15.90
2023-03-20T14:39:25.189Z,15.80
2023-03-20T14:42:16.086Z,15.70
2023-03-20T14:45:01.115Z,15.50
2023-03-20T14:47:44.311Z,15.40
2023-03-20T14:50:19.327Z,15.40
2023-03-20T14:53:06.161Z,15.30
2023-03-20T14:55:47.577Z,15.40
2023-03-20T14:58:43.249Z,15.30
2023-03-20T15:01:19.686Z,15.10
2023-03-20T15:03:51.904Z,15.10
2023-03-20T15:06:22.932Z,15.00
2023-03-20T15:08:55.084Z,14.90
2023-03-20T15:11:24.846Z,14.80
2023-03-20T15:13:54.525Z,14.80
2023-03-20T15:16:29.826Z,14.80
2023-03-20T15:18:58.275Z,14.70
2023-03-20T15:21:32.745Z,14.60
2023-03-20T15:24:02.585Z,14.50
2023-03-20T15:26:34.037Z,14.40
2023-03-20T15:29:04.975Z,14.30
2023-03-20T15:31:34.900Z,14.30
2023-03-20T15:34:05.933Z,14.40
2023-03-20T15:36:37.049Z,14.30
2023-03-20T15:39:13.555Z,14.30
2023-03-20T15:41:45.256Z,14.10
2023-03-20T15:44:23.041Z,14.00
2023-03-20T15:46:58.219Z,14.00
2023-03-20T15:49:27.406Z,13.90
2023-03-20T15:51:59.593Z,13.90
2023-03-20T15:54:29.641Z,13.90
2023-03-20T15:57:00.619Z,13.80
2023-03-20T15:59:31.797Z,13.80
2023-03-20T16:02:01.716Z,13.70
2023-03-20T16:04:29.852Z,13.60
2023-03-20T16:06:59.839Z,13.60
2023-03-20T16:09:29.882Z,13.50
2023-03-20T16:12:00.593Z,13.30
2023-03-20T16:14:32.243Z,13.20
2023-03-20T16:17:02.699Z,13.20
2023-03-20T16:19:31.380Z,13.10
2023-03-20T16:22:02.488Z,13.10
2023-03-20T16:24:37.375Z,13.00
2023-03-20T16:27:10.657Z,12.90
2023-03-20T16:29:43.488Z,12.90
2023-03-20T16:32:26.716Z,12.90
2023-03-20T16:34:58.935Z,12.80
2023-03-20T16:37:29.269Z,12.80
2023-03-20T16:40:12.669Z,12.80
2023-03-20T16:42:40.718Z,12.70
2023-03-20T16:45:23.087Z,12.70
2023-03-20T16:47:51.047Z,12.70
2023-03-20T16:50:21.950Z,12.70
2023-03-20T16:52:52.845Z,12.70
2023-03-20T16:55:29.289Z,12.70
2023-03-20T16:58:01.341Z,12.70
2023-03-20T17:00:31.555Z,12.60
2023-03-20T17:03:03.110Z,12.60
2023-03-20T17:05:51.839Z,12.60
2023-03-20T17:08:29.534Z,12.50
2023-03-20T17:11:01.540Z,12.50
2023-03-20T17:13:29.353Z,12.40
2023-03-20T17:15:59.195Z,12.30
2023-03-20T17:18:27.311Z,12.20
2023-03-20T17:20:55.208Z,12.10
2023-03-20T17:23:24.323Z,12.10
2023-03-20T17:25:52.736Z,12.00
2023-03-20T17:28:28.315Z,12.00
2023-03-20T17:30:56.205Z,11.90
2023-03-20T17:33:24.146Z,11.90
2023-03-20T17:35:52.899Z,11.80
2023-03-20T17:38:22.812Z,11.80
2023-03-20T17:40:52.415Z,11.80
2023-03-20T17:43:22.416Z,11.80
2023-03-20T17:45:50.704Z,11.80
2023-03-20T17:48:24.004Z,11.70
2023-03-20T17:50:52.151Z,11.70
2023-03-20T17:53:21.773Z,11.60
2023-03-20T17:55:49.647Z,11.60
2023-03-20T17:58:21.227Z,11.60
2023-03-20T18:00:51.511Z,11.50
2023-03-20T18:03:20.109Z,11.50
2023-03-20T18:05:50.293Z,11.50
2023-03-20T18:08:21.166Z,11.50
2023-03-20T18:10:50.074Z,11.50
2023-03-20T18:13:20.846Z,11.50
2023-03-20T18:15:51.529Z,11.50
2023-03-20T18:18:24.132Z,11.50
2023-03-20T18:20:55.389Z,11.40
2023-03-20T18:23:23.474Z,11.40
2023-03-20T18:25:51.723Z,11.40
2023-03-20T18:28:22.885Z,11.40
2023-03-20T18:30:52.736Z,11.40
2023-03-20T18:33:25.181Z,11.40
2023-03-20T18:35:53.470Z,11.40
2023-03-20T18:38:24.496Z,11.40
2023-03-20T18:40:52.662Z,11.40
2023-03-20T18:43:20.605Z,11.40
2023-03-20T18:45:48.658Z,11.40
2023-03-20T18:48:18.205Z,11.40
2023-03-20T18:50:50.713Z,11.40
2023-03-20T18:53:18.931Z,11.40
2023-03-20T18:55:46.788Z,11.40
2023-03-20T18:58:21.332Z,11.40
2023-03-20T19:00:50.075Z,11.40
2023-03-20T19:03:23.839Z,11.30
2023-03-20T19:05:52.454Z,11.30
2023-03-20T19:08:20.641Z,11.30
2023-03-20T19:10:49.041Z,11.30
2023-03-20T19:13:18.723Z,11.30
2023-03-20T19:15:47.070Z,11.40
2023-03-20T19:18:17.118Z,11.30
2023-03-20T19:20:48.084Z,11.30
2023-03-20T19:23:17.736Z,11.30
2023-03-20T19:25:47.634Z,11.20
2023-03-20T19:28:21.824Z,11.10
2023-03-20T19:30:51.802Z,11.10
2023-03-20T19:33:20.167Z,11.10
2023-03-20T19:36:05.354Z,11.20
2023-03-20T19:38:34.270Z,11.10
2023-03-20T19:41:03.756Z,11.10
2023-03-20T19:43:32.380Z,11.10
2023-03-20T19:46:00.885Z,11.10
2023-03-20T19:48:46.886Z,11.10
2023-03-20T19:51:20.159Z,11.00
2023-03-20T19:53:48.718Z,11.00
2023-03-20T19:56:17.824Z,11.00
2023-03-20T19:58:45.800Z,11.00
2023-03-20T20:01:18.318Z,11.00
2023-03-20T20:03:47.023Z,11.00
2023-03-20T20:06:15.996Z,11.00
2023-03-20T20:08:49.156Z,11.00
2023-03-20T20:11:17.718Z,11.00
2023-03-20T20:14:05.274Z,11.10
2023-03-20T20:16:35.241Z,11.10
2023-03-20T20:19:03.563Z,11.20
2023-03-20T20:24:21.236Z,11.10
2023-03-20T20:26:55.280Z,11.10
2023-03-20T20:29:28.166Z,11.00
2023-03-20T20:31:56.087Z,11.00
2023-03-20T20:40:01.417Z,10.90
2023-03-20T20:42:29.422Z,11.00
2023-03-20T20:44:59.688Z,10.90
2023-03-20T20:47:27.658Z,10.80
2023-03-20T20:49:55.823Z,10.70
2023-03-20T20:52:23.707Z,10.70
2023-03-20T20:54:51.524Z,10.60
2023-03-20T20:57:20.699Z,10.70
2023-03-20T20:59:48.593Z,10.80
2023-03-20T21:02:17.645Z,10.80
2023-03-20T21:04:46.696Z,10.90
2023-03-20T21:07:14.907Z,10.90
2023-03-20T21:09:43.052Z,10.80
2023-03-20T21:12:22.638Z,10.80
2023-03-20T21:15:00.391Z,10.70
2023-03-20T21:17:29.285Z,10.80
2023-03-20T21:19:57.363Z,10.80
2023-03-20T21:22:25.692Z,10.80
2023-03-20T21:25:11.056Z,10.80
2023-03-20T21:27:41.579Z,10.90
2023-03-20T21:30:12.492Z,11.00
2023-03-20T21:32:40.656Z,11.00
2023-03-20T21:35:09.354Z,11.10
2023-03-20T21:40:25.608Z,11.00
2023-03-20T21:42:53.703Z,10.90
2023-03-20T21:51:50.220Z,10.90
2023-03-20T21:54:45.956Z,10.80
2023-03-20T21:57:15.389Z,10.70
2023-03-20T21:59:57.667Z,10.60
2023-03-20T22:02:23.497Z,10.60
2023-03-20T22:14:18.897Z,10.30
2023-03-20T22:16:58.189Z,10.20
2023-03-20T22:25:16.654Z,10.30
2023-03-20T22:28:02.505Z,10.20
2023-03-20T22:36:43.471Z,9.90
2023-03-20T22:39:26.955Z,9.90
2023-03-20T22:42:18.443Z,9.80
2023-03-20T22:44:56.806Z,9.80
2023-03-20T22:47:06.560Z,9.80
2023-03-20T22:49:34.459Z,9.90
2023-03-20T22:52:22.638Z,9.90
2023-03-20T22:54:53.409Z,10.00
2023-03-20T22:57:22.879Z,10.10
2023-03-20T22:59:52.396Z,10.30
2023-03-20T23:02:20.197Z,10.30
2023-03-20T23:04:48.157Z,10.30
2023-03-20T23:07:17.571Z,10.30
2023-03-20T23:09:45.422Z,10.30
2023-03-20T23:12:13.221Z,10.40
2023-03-20T23:14:45.944Z,10.40
2023-03-20T23:17:14.327Z,10.50
2023-03-20T23:19:56.360Z,10.40
2023-03-20T23:22:31.128Z,10.40
2023-03-20T23:25:02.838Z,10.40
2023-03-20T23:27:37.917Z,10.40
2023-03-20T23:30:07.121Z,10.30
2023-03-20T23:32:37.757Z,10.30
2023-03-20T23:35:07.205Z,10.30
2023-03-20T23:37:37.107Z,10.30
2023-03-20T23:40:06.161Z,10.30
2023-03-20T23:42:34.176Z,10.30
2023-03-20T23:45:13.219Z,10.20
2023-03-20T23:47:48.237Z,10.30
2023-03-20T23:50:27.726Z,10.20
2023-03-20T23:53:13.035Z,10.20
2023-03-20T23:55:46.377Z,10.20
2023-03-20T23:58:14.984Z,10.20
